Impacts TAF Board INFO
FOR SITUATIONAL AWARENESS. NOT TO BE USED FOR FLIGHT PLANNING PURPOSES.
IDs:

KPDX - Portland Intl Arpt, OR, US

Issued at 1449 UTC 19 Nov 2017
Updated at 1556 UTC 19 Nov 2017
Potential Impact None Slight Moderate High
Time1553Z 19/16Z 19/17Z 19/18Z 19/19Z 19/20Z 19/21Z 19/22Z 19/23Z 20/00Z 20/01Z 20/02Z 20/03Z 20/04Z>>
Type OBS PRVL PRVL PRVL PRVL PRVL PRVL PRVL PRVL PRVL PRVL PRVL PRVL PRVL
VIS 1.5 6 6 6 6 >6 >6 >6 >6 >6 >6 >6 >6 >6
CIG 5 6 6 6 6 50 50 50 50 50 50 40 40 40
Cover OVC OVC OVC OVC OVC OVC OVC OVC OVC OVC OVC OVC OVC OVC
FltCat IFR IFR IFR IFR IFR VFR VFR VFR VFR VFR VFR VFR VFR VFR
WX BR BR BR BR BR -- -- -- -- -- -- -RA -RA -RA
WDir 100 150 150 150 150 160 160 160 160 160 160 160 160 160
WSpd 6 4 4 4 4 7 7 7 7 7 7 12 12 12
WGst -- -- -- -- -- -- -- -- -- -- -- 22 22 22

Raw TAF
KPDX 191449Z 1915/2012 15004KT 6SM BR OVC006
  FM192000 16007KT P6SM SCT005 OVC050
  FM200200 16012G22KT P6SM -RA SCT025 OVC040
  FM200600 16015G25KT 4SM -RA BR OVC022
  FM201000 18012KT P6SM -RA OVC025


Raw METAR
KPDX 191553Z 10006KT 1 1/2SM BR OVC005 02/02 A3011 RMK AO2 SFC VIS 6 SLP195 T00220017
KPDX 191453Z 13006KT 1 1/2SM OVC006 03/02 A3011 RMK AO2 SFC VIS 9 SLP197 T00280022 56009
KPDX 191353Z 15004KT 9SM OVC006 03/03 A3012 RMK AO2 SLP199 T00330028
KPDX 191253Z 12005KT 10SM OVC005 03/03 A3013 RMK AO2 SLP201 T00330028

METAR Board
Radar Display
Forecast Discussion

FOR SITUATIONAL AWARENESS. NOT TO BE USED FOR FLIGHT PLANNING PURPOSES.